Crystal Island — 3EZJ3 — position and weather

sailwx.info

Track history (hours):
 
Tides and Currents Weather Stations Pressure Air Temp Water Temp Dewpoint Dewpoint Depression Visibility Wind Speed Wind Dir Waves Ship Positions

Crystal Island

Last reported at 2016-Aug-29 18:15 UTC. Time now 2016-Aug-30 17:11 UTC.
Position N 33°41' W 007°32'.

Length 169 m; draft 9.2 m.

Type: Ship. MMSI: 372562000.

Date/timePositionNaut miles runAvg speedWind from/ knotsBaromVisibWave heightAir tempDewpointWater temp
2016-Aug-29 18:15N 33°41' W 007°32'0 0.0
2016-Aug-29 17:33N 33°41' W 007°32'0 0.0
2016-Aug-29 16:06N 33°41' W 007°32'0 0.0
2016-Aug-29 15:33N 33°41' W 007°32'0 0.0
2016-Aug-29 11:27N 33°41' W 007°32'0 0.0
2016-Aug-28 18:12N 33°41' W 007°32'0 0.0
2016-Aug-28 17:30N 33°41' W 007°32'0 0.0
2016-Aug-28 16:15N 33°41' W 007°32'0 0.0
2016-Aug-27 20:21N 33°41' W 007°32'0 0.0
2016-Aug-27 19:24N 33°41' W 007°32'0 0.0
2016-Aug-27 06:09N 33°41' W 007°32'0 0.0
2016-Aug-27 04:12N 33°41' W 007°32'0 0.0
2016-Aug-27 03:27N 33°41' W 007°32'0 0.0
2016-Aug-27 02:30N 33°41' W 007°32'0 0.0
2016-Aug-25 02:21N 33°41' W 007°32'2 3.0
2016-Aug-25 01:33N 33°44' W 007°32'2612.0
2016-Aug-24 23:25N 34°06' W 007°18'1112.0
2016-Aug-24 22:31N 34°16' W 007°11'1212.0
2016-Aug-24 21:33N 34°25' W 007°03'2611.8
2016-Aug-24 19:20N 34°48' W 006°47'1012.3
2016-Aug-24 18:33N 34°56' W 006°41'6512.6
2016-Aug-24 13:23N 35°51' W 005°59'1012.4
2016-Aug-24 12:33N 35°56' W 005°48'1110.8
2016-Aug-24 11:33N 35°57' W 005°35'1010.0
2016-Aug-24 10:34N 36°01' W 005°23'1212.0
2016-Aug-24 09:33N 36°05' W 005°09'19912.0
2016-Aug-23 17:03N 36°35' W 001°05'48411.9
2016-Aug-22 00:17N 37°26' E 008°58'911.6
2016-Aug-21 23:29N 37°28' E 009°09'1011.2
2016-Aug-21 22:33N 37°31' E 009°22'1311.0
2016-Aug-21 21:22N 37°34' E 009°38'5511.2
2016-Aug-21 16:30N 37°32' E 010°47'1212.2
2016-Aug-21 15:33N 37°29' E 011°01'1512.3
2016-Aug-21 14:22N 37°24' E 011°18'1011.6
2016-Aug-21 13:32N 37°20' E 011°29'1111.2
2016-Aug-21 12:32N 37°15' E 011°42'1211.7
2016-Aug-21 11:29N 37°11' E 011°57'1111.4
2016-Aug-21 10:33N 37°07' E 012°09'1212.1
2016-Aug-21 09:33N 37°04' E 012°23'1212.2
2016-Aug-21 08:33N 36°60' E 012°38'1212.5
2016-Aug-21 07:33N 36°56' E 012°52'1212.0
2016-Aug-21 06:33N 36°52' E 013°07'1211.8
2016-Aug-21 05:33N 36°48' E 013°21'1211.7
2016-Aug-21 04:33N 36°45' E 013°35'1211.7
2016-Aug-21 03:33N 36°40' E 013°48'1211.7
2016-Aug-21 02:33N 36°37' E 014°02'1212.1
2016-Aug-21 01:34N 36°33' E 014°16'1212.2
2016-Aug-21 00:33N 36°29' E 014°31'1212.3
2016-Aug-20 23:33N 36°27' E 014°46'1312.5
2016-Aug-20 22:33N 36°27' E 015°01'1212.0
2016-Aug-20 21:33N 36°26' E 015°16'1211.9
2016-Aug-20 20:33N 36°26' E 015°31'2612.0
2016-Aug-20 18:25N 36°26' E 016°03'1112.3
2016-Aug-20 17:32N 36°26' E 016°16'  
Track history (hours):
 
Tides and Currents Weather Stations Pressure Air Temp Water Temp Dewpoint Dewpoint Depression Visibility Wind Speed Wind Dir Waves Ship Positions

Crystal Island

Last reported at 2016-Aug-29 18:15 UTC. Time now 2016-Aug-30 17:11 UTC.
Position N 33°41' W 007°32'.

Length 169 m; draft 9.2 m.

Type: Ship. MMSI: 372562000.

Date/timePositionNaut miles runAvg speedWind from/ knotsBaromVisibWave heightAir tempDewpointWater temp
2016-Aug-29 18:15N 33°41' W 007°32'0 0.0
2016-Aug-29 17:33N 33°41' W 007°32'0 0.0
2016-Aug-29 16:06N 33°41' W 007°32'0 0.0
2016-Aug-29 15:33N 33°41' W 007°32'0 0.0
2016-Aug-29 11:27N 33°41' W 007°32'0 0.0
2016-Aug-28 18:12N 33°41' W 007°32'0 0.0
2016-Aug-28 17:30N 33°41' W 007°32'0 0.0
2016-Aug-28 16:15N 33°41' W 007°32'0 0.0
2016-Aug-27 20:21N 33°41' W 007°32'0 0.0
2016-Aug-27 19:24N 33°41' W 007°32'0 0.0
2016-Aug-27 06:09N 33°41' W 007°32'0 0.0
2016-Aug-27 04:12N 33°41' W 007°32'0 0.0
2016-Aug-27 03:27N 33°41' W 007°32'0 0.0
2016-Aug-27 02:30N 33°41' W 007°32'0 0.0
2016-Aug-25 02:21N 33°41' W 007°32'2 3.0
2016-Aug-25 01:33N 33°44' W 007°32'2612.0
2016-Aug-24 23:25N 34°06' W 007°18'1112.0
2016-Aug-24 22:31N 34°16' W 007°11'1212.0
2016-Aug-24 21:33N 34°25' W 007°03'2611.8
2016-Aug-24 19:20N 34°48' W 006°47'1012.3
2016-Aug-24 18:33N 34°56' W 006°41'6512.6
2016-Aug-24 13:23N 35°51' W 005°59'1012.4
2016-Aug-24 12:33N 35°56' W 005°48'1110.8
2016-Aug-24 11:33N 35°57' W 005°35'1010.0
2016-Aug-24 10:34N 36°01' W 005°23'1212.0
2016-Aug-24 09:33N 36°05' W 005°09'19912.0
2016-Aug-23 17:03N 36°35' W 001°05'48411.9
2016-Aug-22 00:17N 37°26' E 008°58'911.6
2016-Aug-21 23:29N 37°28' E 009°09'1011.2
2016-Aug-21 22:33N 37°31' E 009°22'1311.0
2016-Aug-21 21:22N 37°34' E 009°38'5511.2
2016-Aug-21 16:30N 37°32' E 010°47'1212.2
2016-Aug-21 15:33N 37°29' E 011°01'1512.3
2016-Aug-21 14:22N 37°24' E 011°18'1011.6
2016-Aug-21 13:32N 37°20' E 011°29'1111.2
2016-Aug-21 12:32N 37°15' E 011°42'1211.7
2016-Aug-21 11:29N 37°11' E 011°57'1111.4
2016-Aug-21 10:33N 37°07' E 012°09'1212.1
2016-Aug-21 09:33N 37°04' E 012°23'1212.2
2016-Aug-21 08:33N 36°60' E 012°38'1212.5
2016-Aug-21 07:33N 36°56' E 012°52'1212.0
2016-Aug-21 06:33N 36°52' E 013°07'1211.8
2016-Aug-21 05:33N 36°48' E 013°21'1211.7
2016-Aug-21 04:33N 36°45' E 013°35'1211.7
2016-Aug-21 03:33N 36°40' E 013°48'1211.7
2016-Aug-21 02:33N 36°37' E 014°02'1212.1
2016-Aug-21 01:34N 36°33' E 014°16'1212.2
2016-Aug-21 00:33N 36°29' E 014°31'1212.3
2016-Aug-20 23:33N 36°27' E 014°46'1312.5
2016-Aug-20 22:33N 36°27' E 015°01'1212.0
2016-Aug-20 21:33N 36°26' E 015°16'1211.9
2016-Aug-20 20:33N 36°26' E 015°31'2612.0
2016-Aug-20 18:25N 36°26' E 016°03'1112.3
2016-Aug-20 17:32N 36°26' E 016°16'  

Dump ship's entire track history